sensor_id;sensor_type;location;lat;lon;timestamp;temperature;humidity
38514;DHT22;24282;48.400;10.808;2023-07-24T00:01:19;18.50;74.80
38514;DHT22;24282;48.400;10.808;2023-07-24T00:03:45;18.50;74.90
38514;DHT22;24282;48.400;10.808;2023-07-24T00:06:11;18.50;74.90
38514;DHT22;24282;48.400;10.808;2023-07-24T00:08:38;18.40;75.00
38514;DHT22;24282;48.400;10.808;2023-07-24T00:11:07;18.40;75.10
38514;DHT22;24282;48.400;10.808;2023-07-24T00:13:33;18.40;75.20
38514;DHT22;24282;48.400;10.808;2023-07-24T00:15:58;18.40;75.20
38514;DHT22;24282;48.400;10.808;2023-07-24T00:18:24;18.40;75.10
38514;DHT22;24282;48.400;10.808;2023-07-24T00:20:50;18.30;75.20
38514;DHT22;24282;48.400;10.808;2023-07-24T00:23:16;18.30;75.30
38514;DHT22;24282;48.400;10.808;2023-07-24T00:25:41;18.20;75.20
38514;DHT22;24282;48.400;10.808;2023-07-24T00:28:07;18.20;75.30
38514;DHT22;24282;48.400;10.808;2023-07-24T00:30:33;18.20;75.40
38514;DHT22;24282;48.400;10.808;2023-07-24T00:32:58;18.20;75.50
38514;DHT22;24282;48.400;10.808;2023-07-24T00:35:25;18.10;75.70
38514;DHT22;24282;48.400;10.808;2023-07-24T00:37:51;18.10;75.70
38514;DHT22;24282;48.400;10.808;2023-07-24T00:40:17;18.10;75.80
38514;DHT22;24282;48.400;10.808;2023-07-24T00:42:48;18.10;75.90
38514;DHT22;24282;48.400;10.808;2023-07-24T00:45:14;18.10;76.00
38514;DHT22;24282;48.400;10.808;2023-07-24T00:47:42;18.10;76.20
38514;DHT22;24282;48.400;10.808;2023-07-24T00:50:08;18.10;76.30
38514;DHT22;24282;48.400;10.808;2023-07-24T00:52:34;18.20;76.40
38514;DHT22;24282;48.400;10.808;2023-07-24T00:55:00;18.20;76.40
38514;DHT22;24282;48.400;10.808;2023-07-24T00:57:26;18.20;76.20
38514;DHT22;24282;48.400;10.808;2023-07-24T00:59:52;18.20;75.60
38514;DHT22;24282;48.400;10.808;2023-07-24T01:02:18;18.20;75.80
38514;DHT22;24282;48.400;10.808;2023-07-24T01:04:44;18.30;76.00
38514;DHT22;24282;48.400;10.808;2023-07-24T01:07:10;18.30;76.00
38514;DHT22;24282;48.400;10.808;2023-07-24T01:09:36;18.30;76.40
38514;DHT22;24282;48.400;10.808;2023-07-24T01:12:19;18.30;78.70
38514;DHT22;24282;48.400;10.808;2023-07-24T01:15:02;18.30;80.00
38514;DHT22;24282;48.400;10.808;2023-07-24T01:17:31;18.20;80.50
38514;DHT22;24282;48.400;10.808;2023-07-24T01:19:59;18.10;80.60
38514;DHT22;24282;48.400;10.808;2023-07-24T01:25:18;18.10;81.40
38514;DHT22;24282;48.400;10.808;2023-07-24T01:27:46;18.10;81.30
38514;DHT22;24282;48.400;10.808;2023-07-24T01:30:19;18.00;81.50
38514;DHT22;24282;48.400;10.808;2023-07-24T01:32:46;18.00;81.50
38514;DHT22;24282;48.400;10.808;2023-07-24T01:35:12;17.90;81.60
38514;DHT22;24282;48.400;10.808;2023-07-24T01:37:38;17.90;81.80
38514;DHT22;24282;48.400;10.808;2023-07-24T01:40:10;17.90;81.90
38514;DHT22;24282;48.400;10.808;2023-07-24T01:42:36;17.90;82.20
38514;DHT22;24282;48.400;10.808;2023-07-24T01:45:03;17.90;82.40
38514;DHT22;24282;48.400;10.808;2023-07-24T01:47:29;17.90;82.60
38514;DHT22;24282;48.400;10.808;2023-07-24T01:49:56;17.90;82.70
38514;DHT22;24282;48.400;10.808;2023-07-24T01:52:22;17.90;83.10
38514;DHT22;24282;48.400;10.808;2023-07-24T01:54:47;17.90;83.30
38514;DHT22;24282;48.400;10.808;2023-07-24T01:57:13;17.90;83.40
38514;DHT22;24282;48.400;10.808;2023-07-24T01:59:40;17.90;83.30
38514;DHT22;24282;48.400;10.808;2023-07-24T02:02:06;17.90;82.80
38514;DHT22;24282;48.400;10.808;2023-07-24T02:04:32;17.90;82.90
38514;DHT22;24282;48.400;10.808;2023-07-24T02:06:58;17.90;82.90
38514;DHT22;24282;48.400;10.808;2023-07-24T02:09:23;17.90;82.90
38514;DHT22;24282;48.400;10.808;2023-07-24T02:11:49;17.90;83.00
38514;DHT22;24282;48.400;10.808;2023-07-24T02:14:15;17.90;83.20
38514;DHT22;24282;48.400;10.808;2023-07-24T02:16:43;17.90;83.10
38514;DHT22;24282;48.400;10.808;2023-07-24T02:19:08;17.90;83.20
38514;DHT22;24282;48.400;10.808;2023-07-24T02:21:34;17.90;83.20
38514;DHT22;24282;48.400;10.808;2023-07-24T02:24:00;17.90;83.50
38514;DHT22;24282;48.400;10.808;2023-07-24T02:26:26;17.90;83.80
38514;DHT22;24282;48.400;10.808;2023-07-24T02:28:51;17.90;84.00
38514;DHT22;24282;48.400;10.808;2023-07-24T02:31:17;17.90;84.10
38514;DHT22;24282;48.400;10.808;2023-07-24T02:33:43;17.90;84.10
38514;DHT22;24282;48.400;10.808;2023-07-24T02:36:09;17.90;84.30
38514;DHT22;24282;48.400;10.808;2023-07-24T02:38:34;17.90;84.60
38514;DHT22;24282;48.400;10.808;2023-07-24T02:41:00;18.00;84.60
38514;DHT22;24282;48.400;10.808;2023-07-24T02:43:26;18.10;83.80
38514;DHT22;24282;48.400;10.808;2023-07-24T02:45:51;18.10;83.80
38514;DHT22;24282;48.400;10.808;2023-07-24T02:48:17;18.10;84.20
38514;DHT22;24282;48.400;10.808;2023-07-24T02:50:43;18.00;84.40
38514;DHT22;24282;48.400;10.808;2023-07-24T02:53:08;18.00;84.60
38514;DHT22;24282;48.400;10.808;2023-07-24T02:55:34;18.10;84.60
38514;DHT22;24282;48.400;10.808;2023-07-24T02:58:00;18.00;85.00
38514;DHT22;24282;48.400;10.808;2023-07-24T03:00:26;18.00;85.00
38514;DHT22;24282;48.400;10.808;2023-07-24T03:02:52;18.00;85.30
38514;DHT22;24282;48.400;10.808;2023-07-24T03:05:18;18.00;85.70
38514;DHT22;24282;48.400;10.808;2023-07-24T03:07:44;18.00;85.90
38514;DHT22;24282;48.400;10.808;2023-07-24T03:10:10;18.00;86.00
38514;DHT22;24282;48.400;10.808;2023-07-24T03:12:35;17.90;86.20
38514;DHT22;24282;48.400;10.808;2023-07-24T03:15:02;17.90;86.30
38514;DHT22;24282;48.400;10.808;2023-07-24T03:17:28;18.00;86.30
38514;DHT22;24282;48.400;10.808;2023-07-24T03:19:54;17.90;86.30
38514;DHT22;24282;48.400;10.808;2023-07-24T03:22:20;17.90;86.30
38514;DHT22;24282;48.400;10.808;2023-07-24T03:24:46;17.90;86.40
38514;DHT22;24282;48.400;10.808;2023-07-24T03:27:12;17.90;86.50
38514;DHT22;24282;48.400;10.808;2023-07-24T03:29:38;17.90;86.60
38514;DHT22;24282;48.400;10.808;2023-07-24T03:32:07;17.90;86.70
38514;DHT22;24282;48.400;10.808;2023-07-24T03:34:33;17.90;86.80
38514;DHT22;24282;48.400;10.808;2023-07-24T03:36:58;17.90;86.90
38514;DHT22;24282;48.400;10.808;2023-07-24T03:39:24;17.90;87.00
38514;DHT22;24282;48.400;10.808;2023-07-24T03:41:51;17.90;87.10
38514;DHT22;24282;48.400;10.808;2023-07-24T03:44:16;17.90;87.20
38514;DHT22;24282;48.400;10.808;2023-07-24T03:46:42;18.00;87.30
38514;DHT22;24282;48.400;10.808;2023-07-24T03:49:08;17.90;87.30
38514;DHT22;24282;48.400;10.808;2023-07-24T03:51:34;18.00;87.20
38514;DHT22;24282;48.400;10.808;2023-07-24T03:53:59;18.00;87.10
38514;DHT22;24282;48.400;10.808;2023-07-24T03:56:25;18.00;87.10
38514;DHT22;24282;48.400;10.808;2023-07-24T03:58:51;18.00;87.10
38514;DHT22;24282;48.400;10.808;2023-07-24T04:01:17;18.00;87.10
38514;DHT22;24282;48.400;10.808;2023-07-24T04:03:43;18.00;86.90
38514;DHT22;24282;48.400;10.808;2023-07-24T04:06:09;18.00;86.70
38514;DHT22;24282;48.400;10.808;2023-07-24T04:08:35;18.00;86.60
38514;DHT22;24282;48.400;10.808;2023-07-24T04:11:01;18.00;86.90
38514;DHT22;24282;48.400;10.808;2023-07-24T04:13:26;17.90;87.10
38514;DHT22;24282;48.400;10.808;2023-07-24T04:15:52;18.00;87.30
38514;DHT22;24282;48.400;10.808;2023-07-24T04:18:18;18.00;87.30
38514;DHT22;24282;48.400;10.808;2023-07-24T04:20:43;18.00;87.20
38514;DHT22;24282;48.400;10.808;2023-07-24T04:23:09;18.00;87.20
38514;DHT22;24282;48.400;10.808;2023-07-24T04:25:35;18.00;87.30
38514;DHT22;24282;48.400;10.808;2023-07-24T04:28:00;18.00;87.40
38514;DHT22;24282;48.400;10.808;2023-07-24T04:30:26;18.00;87.40
38514;DHT22;24282;48.400;10.808;2023-07-24T04:32:52;18.00;87.50
38514;DHT22;24282;48.400;10.808;2023-07-24T04:35:17;18.00;87.70
38514;DHT22;24282;48.400;10.808;2023-07-24T04:37:43;18.00;87.70
38514;DHT22;24282;48.400;10.808;2023-07-24T04:40:09;18.00;87.70
38514;DHT22;24282;48.400;10.808;2023-07-24T04:42:35;18.00;87.50
38514;DHT22;24282;48.400;10.808;2023-07-24T04:45:01;18.00;87.50
38514;DHT22;24282;48.400;10.808;2023-07-24T04:47:27;18.00;87.50
38514;DHT22;24282;48.400;10.808;2023-07-24T04:49:52;18.00;87.50
38514;DHT22;24282;48.400;10.808;2023-07-24T04:52:18;18.00;87.50
38514;DHT22;24282;48.400;10.808;2023-07-24T04:54:44;18.00;87.50
38514;DHT22;24282;48.400;10.808;2023-07-24T04:57:10;18.00;87.60
38514;DHT22;24282;48.400;10.808;2023-07-24T04:59:36;18.10;87.80
38514;DHT22;24282;48.400;10.808;2023-07-24T05:02:01;18.10;87.80
38514;DHT22;24282;48.400;10.808;2023-07-24T05:04:27;18.10;87.90
38514;DHT22;24282;48.400;10.808;2023-07-24T05:06:53;18.10;87.90
38514;DHT22;24282;48.400;10.808;2023-07-24T05:09:18;18.10;87.80
38514;DHT22;24282;48.400;10.808;2023-07-24T05:11:44;18.10;87.90
38514;DHT22;24282;48.400;10.808;2023-07-24T05:14:10;18.10;88.00
38514;DHT22;24282;48.400;10.808;2023-07-24T05:16:36;18.20;88.00
38514;DHT22;24282;48.400;10.808;2023-07-24T05:19:02;18.10;88.00
38514;DHT22;24282;48.400;10.808;2023-07-24T05:21:28;18.20;88.00
38514;DHT22;24282;48.400;10.808;2023-07-24T05:23:53;18.20;88.10
38514;DHT22;24282;48.400;10.808;2023-07-24T05:26:19;18.20;88.00
38514;DHT22;24282;48.400;10.808;2023-07-24T05:28:45;18.20;87.80
38514;DHT22;24282;48.400;10.808;2023-07-24T05:31:11;18.20;87.80
38514;DHT22;24282;48.400;10.808;2023-07-24T05:33:37;18.20;87.90
38514;DHT22;24282;48.400;10.808;2023-07-24T05:36:03;18.20;88.10
38514;DHT22;24282;48.400;10.808;2023-07-24T05:38:30;18.30;88.30
38514;DHT22;24282;48.400;10.808;2023-07-24T05:41:00;18.40;88.40
38514;DHT22;24282;48.400;10.808;2023-07-24T05:43:27;18.40;88.50
38514;DHT22;24282;48.400;10.808;2023-07-24T05:45:53;18.40;88.50
38514;DHT22;24282;48.400;10.808;2023-07-24T05:48:19;18.40;88.50
38514;DHT22;24282;48.400;10.808;2023-07-24T05:50:45;18.50;88.40
38514;DHT22;24282;48.400;10.808;2023-07-24T05:53:11;18.40;88.50
38514;DHT22;24282;48.400;10.808;2023-07-24T05:55:36;18.50;88.50
38514;DHT22;24282;48.400;10.808;2023-07-24T05:58:02;18.40;88.60
38514;DHT22;24282;48.400;10.808;2023-07-24T06:00:28;18.40;88.40
38514;DHT22;24282;48.400;10.808;2023-07-24T06:02:54;18.40;88.30
38514;DHT22;24282;48.400;10.808;2023-07-24T06:05:20;18.40;88.40
38514;DHT22;24282;48.400;10.808;2023-07-24T06:07:46;18.40;88.50
38514;DHT22;24282;48.400;10.808;2023-07-24T06:10:12;18.50;88.50
38514;DHT22;24282;48.400;10.808;2023-07-24T06:12:38;18.60;88.40
38514;DHT22;24282;48.400;10.808;2023-07-24T06:15:05;18.70;88.40
38514;DHT22;24282;48.400;10.808;2023-07-24T06:17:31;18.80;88.50
38514;DHT22;24282;48.400;10.808;2023-07-24T06:19:57;18.90;88.50
38514;DHT22;24282;48.400;10.808;2023-07-24T06:22:23;18.90;88.30
38514;DHT22;24282;48.400;10.808;2023-07-24T06:24:49;19.00;88.10
38514;DHT22;24282;48.400;10.808;2023-07-24T06:27:15;19.00;87.80
38514;DHT22;24282;48.400;10.808;2023-07-24T06:29:41;19.00;87.70
38514;DHT22;24282;48.400;10.808;2023-07-24T06:32:07;19.00;87.60
38514;DHT22;24282;48.400;10.808;2023-07-24T06:34:33;19.00;87.50
38514;DHT22;24282;48.400;10.808;2023-07-24T06:36:59;19.00;87.40
38514;DHT22;24282;48.400;10.808;2023-07-24T06:39:25;19.00;87.60
38514;DHT22;24282;48.400;10.808;2023-07-24T06:41:54;19.00;85.80
38514;DHT22;24282;48.400;10.808;2023-07-24T06:44:20;19.00;85.70
38514;DHT22;24282;48.400;10.808;2023-07-24T06:46:47;18.90;86.20
38514;DHT22;24282;48.400;10.808;2023-07-24T06:49:12;18.90;86.00
38514;DHT22;24282;48.400;10.808;2023-07-24T06:51:38;18.80;86.20
38514;DHT22;24282;48.400;10.808;2023-07-24T06:54:05;18.80;86.30
38514;DHT22;24282;48.400;10.808;2023-07-24T06:56:31;18.70;86.40
38514;DHT22;24282;48.400;10.808;2023-07-24T06:58:57;18.70;86.60
38514;DHT22;24282;48.400;10.808;2023-07-24T07:01:22;18.70;87.00
38514;DHT22;24282;48.400;10.808;2023-07-24T07:03:48;18.70;86.70
38514;DHT22;24282;48.400;10.808;2023-07-24T07:06:14;18.70;87.00
38514;DHT22;24282;48.400;10.808;2023-07-24T07:08:40;18.70;87.20
38514;DHT22;24282;48.400;10.808;2023-07-24T07:11:06;18.70;87.50
38514;DHT22;24282;48.400;10.808;2023-07-24T07:13:31;18.70;87.70
38514;DHT22;24282;48.400;10.808;2023-07-24T07:15:57;18.60;87.90
38514;DHT22;24282;48.400;10.808;2023-07-24T07:18:23;18.60;88.00
38514;DHT22;24282;48.400;10.808;2023-07-24T07:20:50;18.60;87.80
38514;DHT22;24282;48.400;10.808;2023-07-24T07:23:16;18.60;87.70
38514;DHT22;24282;48.400;10.808;2023-07-24T07:25:42;18.60;87.70
38514;DHT22;24282;48.400;10.808;2023-07-24T07:28:16;18.60;87.70
38514;DHT22;24282;48.400;10.808;2023-07-24T07:30:43;18.60;87.50
38514;DHT22;24282;48.400;10.808;2023-07-24T07:33:09;18.60;87.50
38514;DHT22;24282;48.400;10.808;2023-07-24T07:35:36;18.60;87.50
38514;DHT22;24282;48.400;10.808;2023-07-24T07:38:02;18.60;87.30
38514;DHT22;24282;48.400;10.808;2023-07-24T07:40:28;18.40;87.30
38514;DHT22;24282;48.400;10.808;2023-07-24T07:42:54;18.40;87.50
38514;DHT22;24282;48.400;10.808;2023-07-24T07:45:24;18.40;87.30
38514;DHT22;24282;48.400;10.808;2023-07-24T07:47:50;18.40;87.10
38514;DHT22;24282;48.400;10.808;2023-07-24T07:50:15;18.50;87.40
38514;DHT22;24282;48.400;10.808;2023-07-24T07:52:41;18.40;87.50
38514;DHT22;24282;48.400;10.808;2023-07-24T07:55:07;18.40;87.60
38514;DHT22;24282;48.400;10.808;2023-07-24T07:57:36;18.40;87.40
38514;DHT22;24282;48.400;10.808;2023-07-24T08:00:06;18.40;87.40
38514;DHT22;24282;48.400;10.808;2023-07-24T08:02:32;18.40;87.90
38514;DHT22;24282;48.400;10.808;2023-07-24T08:05:00;18.40;87.10
38514;DHT22;24282;48.400;10.808;2023-07-24T08:07:25;18.40;87.20
38514;DHT22;24282;48.400;10.808;2023-07-24T08:09:51;18.50;87.10
38514;DHT22;24282;48.400;10.808;2023-07-24T08:12:17;18.50;86.90
38514;DHT22;24282;48.400;10.808;2023-07-24T08:14:43;18.60;86.90
38514;DHT22;24282;48.400;10.808;2023-07-24T08:17:08;18.60;87.50
38514;DHT22;24282;48.400;10.808;2023-07-24T08:19:34;18.60;87.70
38514;DHT22;24282;48.400;10.808;2023-07-24T08:22:00;18.70;88.20
38514;DHT22;24282;48.400;10.808;2023-07-24T08:24:25;18.80;88.00
38514;DHT22;24282;48.400;10.808;2023-07-24T08:26:51;18.80;87.60
38514;DHT22;24282;48.400;10.808;2023-07-24T08:29:17;18.90;87.70
38514;DHT22;24282;48.400;10.808;2023-07-24T08:31:42;19.00;87.70
38514;DHT22;24282;48.400;10.808;2023-07-24T08:34:09;19.10;87.60
38514;DHT22;24282;48.400;10.808;2023-07-24T08:36:34;19.20;87.80
38514;DHT22;24282;48.400;10.808;2023-07-24T08:39:00;19.30;88.00
38514;DHT22;24282;48.400;10.808;2023-07-24T08:41:26;19.40;88.20
38514;DHT22;24282;48.400;10.808;2023-07-24T08:43:52;19.50;88.10
38514;DHT22;24282;48.400;10.808;2023-07-24T08:46:19;19.60;87.60
38514;DHT22;24282;48.400;10.808;2023-07-24T08:48:46;19.60;87.00
38514;DHT22;24282;48.400;10.808;2023-07-24T08:51:13;19.70;86.70
38514;DHT22;24282;48.400;10.808;2023-07-24T08:53:41;19.90;87.00
38514;DHT22;24282;48.400;10.808;2023-07-24T08:56:09;19.90;85.90
38514;DHT22;24282;48.400;10.808;2023-07-24T08:58:35;20.10;85.70
38514;DHT22;24282;48.400;10.808;2023-07-24T09:01:03;20.10;86.00
38514;DHT22;24282;48.400;10.808;2023-07-24T09:03:30;20.30;85.90
38514;DHT22;24282;48.400;10.808;2023-07-24T09:05:57;20.30;85.10
38514;DHT22;24282;48.400;10.808;2023-07-24T09:08:34;20.40;85.00
38514;DHT22;24282;48.400;10.808;2023-07-24T09:11:01;20.40;85.30
38514;DHT22;24282;48.400;10.808;2023-07-24T09:13:28;20.40;85.50
38514;DHT22;24282;48.400;10.808;2023-07-24T09:15:54;20.40;84.90
38514;DHT22;24282;48.400;10.808;2023-07-24T09:18:21;20.40;85.10
38514;DHT22;24282;48.400;10.808;2023-07-24T09:20:46;20.50;85.50
38514;DHT22;24282;48.400;10.808;2023-07-24T09:23:13;20.60;85.80
38514;DHT22;24282;48.400;10.808;2023-07-24T09:25:41;20.70;86.30
38514;DHT22;24282;48.400;10.808;2023-07-24T09:28:15;20.90;86.40
38514;DHT22;24282;48.400;10.808;2023-07-24T09:30:42;21.00;86.20
38514;DHT22;24282;48.400;10.808;2023-07-24T09:33:09;21.20;85.50
38514;DHT22;24282;48.400;10.808;2023-07-24T09:35:35;21.40;85.00
38514;DHT22;24282;48.400;10.808;2023-07-24T09:38:09;21.60;84.60
38514;DHT22;24282;48.400;10.808;2023-07-24T09:43:22;21.90;81.70
38514;DHT22;24282;48.400;10.808;2023-07-24T09:45:49;22.00;80.90
38514;DHT22;24282;48.400;10.808;2023-07-24T09:48:16;22.10;81.60
38514;DHT22;24282;48.400;10.808;2023-07-24T09:50:45;22.30;81.60
38514;DHT22;24282;48.400;10.808;2023-07-24T09:53:41;22.40;80.80
38514;DHT22;24282;48.400;10.808;2023-07-24T09:56:09;22.50;80.70
38514;DHT22;24282;48.400;10.808;2023-07-24T09:58:39;22.50;78.20
38514;DHT22;24282;48.400;10.808;2023-07-24T10:01:09;22.50;77.40
38514;DHT22;24282;48.400;10.808;2023-07-24T10:03:39;22.40;76.70
38514;DHT22;24282;48.400;10.808;2023-07-24T10:06:05;22.30;76.90
38514;DHT22;24282;48.400;10.808;2023-07-24T10:08:31;22.10;78.00
38514;DHT22;24282;48.400;10.808;2023-07-24T10:11:00;21.90;78.90
38514;DHT22;24282;48.400;10.808;2023-07-24T10:13:27;21.80;79.10
38514;DHT22;24282;48.400;10.808;2023-07-24T10:15:53;21.60;79.10
38514;DHT22;24282;48.400;10.808;2023-07-24T10:18:27;21.50;80.10
38514;DHT22;24282;48.400;10.808;2023-07-24T10:21:26;21.40;81.00
38514;DHT22;24282;48.400;10.808;2023-07-24T10:23:52;21.40;81.50
38514;DHT22;24282;48.400;10.808;2023-07-24T10:26:24;21.30;81.90
38514;DHT22;24282;48.400;10.808;2023-07-24T10:28:50;21.40;82.00
38514;DHT22;24282;48.400;10.808;2023-07-24T10:31:19;21.60;82.40
38514;DHT22;24282;48.400;10.808;2023-07-24T10:33:46;21.90;82.00
38514;DHT22;24282;48.400;10.808;2023-07-24T10:36:12;22.00;81.40
38514;DHT22;24282;48.400;10.808;2023-07-24T10:38:43;22.20;81.70
38514;DHT22;24282;48.400;10.808;2023-07-24T10:41:10;22.40;80.30
38514;DHT22;24282;48.400;10.808;2023-07-24T10:43:50;22.50;79.70
38514;DHT22;24282;48.400;10.808;2023-07-24T10:46:17;22.80;79.10
38514;DHT22;24282;48.400;10.808;2023-07-24T10:48:48;22.90;77.60
38514;DHT22;24282;48.400;10.808;2023-07-24T10:51:15;23.10;77.70
38514;DHT22;24282;48.400;10.808;2023-07-24T10:53:46;23.30;77.00
38514;DHT22;24282;48.400;10.808;2023-07-24T10:56:14;23.40;76.20
38514;DHT22;24282;48.400;10.808;2023-07-24T10:58:40;23.60;75.30
38514;DHT22;24282;48.400;10.808;2023-07-24T11:01:07;23.60;73.80
38514;DHT22;24282;48.400;10.808;2023-07-24T11:03:36;23.50;74.50
38514;DHT22;24282;48.400;10.808;2023-07-24T11:06:03;23.50;75.60
38514;DHT22;24282;48.400;10.808;2023-07-24T11:08:29;23.50;74.00
38514;DHT22;24282;48.400;10.808;2023-07-24T11:10:56;23.60;75.60
38514;DHT22;24282;48.400;10.808;2023-07-24T11:13:25;23.60;76.50
38514;DHT22;24282;48.400;10.808;2023-07-24T11:15:51;23.70;75.10
38514;DHT22;24282;48.400;10.808;2023-07-24T11:18:18;23.80;75.40
38514;DHT22;24282;48.400;10.808;2023-07-24T11:20:49;23.80;74.70
38514;DHT22;24282;48.400;10.808;2023-07-24T11:23:15;23.90;74.40
38514;DHT22;24282;48.400;10.808;2023-07-24T11:25:41;23.90;73.00
38514;DHT22;24282;48.400;10.808;2023-07-24T11:28:09;23.90;72.70
38514;DHT22;24282;48.400;10.808;2023-07-24T11:30:35;23.90;73.30
38514;DHT22;24282;48.400;10.808;2023-07-24T11:33:03;24.10;70.20
38514;DHT22;24282;48.400;10.808;2023-07-24T11:35:30;24.00;68.10
38514;DHT22;24282;48.400;10.808;2023-07-24T11:37:56;23.80;69.70
38514;DHT22;24282;48.400;10.808;2023-07-24T11:40:34;23.70;72.70
38514;DHT22;24282;48.400;10.808;2023-07-24T11:43:00;23.50;73.60
38514;DHT22;24282;48.400;10.808;2023-07-24T11:45:26;23.30;71.50
38514;DHT22;24282;48.400;10.808;2023-07-24T11:47:52;23.10;70.10
38514;DHT22;24282;48.400;10.808;2023-07-24T11:50:22;22.90;71.00
38514;DHT22;24282;48.400;10.808;2023-07-24T11:52:50;22.70;73.70
38514;DHT22;24282;48.400;10.808;2023-07-24T11:55:18;22.60;76.10
38514;DHT22;24282;48.400;10.808;2023-07-24T11:58:01;22.50;75.20
38514;DHT22;24282;48.400;10.808;2023-07-24T12:00:27;22.30;78.70
38514;DHT22;24282;48.400;10.808;2023-07-24T12:02:59;22.10;79.50
38514;DHT22;24282;48.400;10.808;2023-07-24T12:05:26;21.90;77.70
38514;DHT22;24282;48.400;10.808;2023-07-24T12:07:54;21.70;79.20
38514;DHT22;24282;48.400;10.808;2023-07-24T12:10:27;21.50;79.10
38514;DHT22;24282;48.400;10.808;2023-07-24T12:12:54;21.30;80.30
38514;DHT22;24282;48.400;10.808;2023-07-24T12:15:20;21.10;81.00
38514;DHT22;24282;48.400;10.808;2023-07-24T12:17:45;20.90;81.80
38514;DHT22;24282;48.400;10.808;2023-07-24T12:20:11;20.90;82.60
38514;DHT22;24282;48.400;10.808;2023-07-24T12:22:38;20.80;83.30
38514;DHT22;24282;48.400;10.808;2023-07-24T12:25:05;20.70;83.60
38514;DHT22;24282;48.400;10.808;2023-07-24T12:27:31;20.70;83.60
38514;DHT22;24282;48.400;10.808;2023-07-24T12:29:57;20.70;83.50
38514;DHT22;24282;48.400;10.808;2023-07-24T12:32:23;20.60;83.70
38514;DHT22;24282;48.400;10.808;2023-07-24T12:34:53;20.60;84.40
38514;DHT22;24282;48.400;10.808;2023-07-24T12:37:19;20.50;84.50
38514;DHT22;24282;48.400;10.808;2023-07-24T12:39:46;20.40;83.80
38514;DHT22;24282;48.400;10.808;2023-07-24T12:42:12;20.50;83.50
38514;DHT22;24282;48.400;10.808;2023-07-24T12:44:38;20.40;84.00
38514;DHT22;24282;48.400;10.808;2023-07-24T12:47:04;20.40;84.70
38514;DHT22;24282;48.400;10.808;2023-07-24T12:49:30;20.40;84.50
38514;DHT22;24282;48.400;10.808;2023-07-24T12:51:56;20.40;84.90
38514;DHT22;24282;48.400;10.808;2023-07-24T12:54:21;20.40;85.70
38514;DHT22;24282;48.400;10.808;2023-07-24T12:56:51;20.50;86.00
38514;DHT22;24282;48.400;10.808;2023-07-24T12:59:18;20.70;86.00
38514;DHT22;24282;48.400;10.808;2023-07-24T13:01:44;20.80;86.10
38514;DHT22;24282;48.400;10.808;2023-07-24T13:04:10;20.90;86.10
38514;DHT22;24282;48.400;10.808;2023-07-24T13:06:36;21.00;85.60
38514;DHT22;24282;48.400;10.808;2023-07-24T13:09:02;20.90;84.70
38514;DHT22;24282;48.400;10.808;2023-07-24T13:11:28;21.00;84.90
38514;DHT22;24282;48.400;10.808;2023-07-24T13:13:55;21.00;85.00
38514;DHT22;24282;48.400;10.808;2023-07-24T13:16:21;21.00;84.90
38514;DHT22;24282;48.400;10.808;2023-07-24T13:18:46;21.10;85.40
38514;DHT22;24282;48.400;10.808;2023-07-24T13:21:12;21.10;85.30
38514;DHT22;24282;48.400;10.808;2023-07-24T13:23:40;21.30;85.20
38514;DHT22;24282;48.400;10.808;2023-07-24T13:26:05;21.50;84.80
38514;DHT22;24282;48.400;10.808;2023-07-24T13:28:33;21.60;84.60
38514;DHT22;24282;48.400;10.808;2023-07-24T13:30:59;21.60;84.20
38514;DHT22;24282;48.400;10.808;2023-07-24T13:33:24;21.60;83.40
38514;DHT22;24282;48.400;10.808;2023-07-24T13:35:50;21.70;82.90
38514;DHT22;24282;48.400;10.808;2023-07-24T13:38:16;21.80;83.00
38514;DHT22;24282;48.400;10.808;2023-07-24T13:40:42;21.80;83.20
38514;DHT22;24282;48.400;10.808;2023-07-24T13:43:08;22.00;82.30
38514;DHT22;24282;48.400;10.808;2023-07-24T13:45:34;22.00;81.00
38514;DHT22;24282;48.400;10.808;2023-07-24T13:47:59;22.00;81.40
38514;DHT22;24282;48.400;10.808;2023-07-24T13:50:25;21.90;82.10
38514;DHT22;24282;48.400;10.808;2023-07-24T13:52:51;21.80;82.00
38514;DHT22;24282;48.400;10.808;2023-07-24T13:55:17;21.80;82.20
38514;DHT22;24282;48.400;10.808;2023-07-24T13:57:42;21.80;81.10
38514;DHT22;24282;48.400;10.808;2023-07-24T14:00:08;21.80;81.70
38514;DHT22;24282;48.400;10.808;2023-07-24T14:02:41;21.80;82.20
38514;DHT22;24282;48.400;10.808;2023-07-24T14:05:07;21.90;82.20
38514;DHT22;24282;48.400;10.808;2023-07-24T14:07:33;22.20;80.80
38514;DHT22;24282;48.400;10.808;2023-07-24T14:09:59;22.50;80.10
38514;DHT22;24282;48.400;10.808;2023-07-24T14:12:24;22.60;79.20
38514;DHT22;24282;48.400;10.808;2023-07-24T14:14:50;22.90;78.40
38514;DHT22;24282;48.400;10.808;2023-07-24T14:17:16;23.10;74.40
38514;DHT22;24282;48.400;10.808;2023-07-24T14:19:41;23.30;73.50
38514;DHT22;24282;48.400;10.808;2023-07-24T14:22:07;23.50;75.20
38514;DHT22;24282;48.400;10.808;2023-07-24T14:24:33;23.80;75.80
38514;DHT22;24282;48.400;10.808;2023-07-24T14:26:58;24.00;74.10
38514;DHT22;24282;48.400;10.808;2023-07-24T14:29:24;24.20;73.70
38514;DHT22;24282;48.400;10.808;2023-07-24T14:31:50;24.30;74.20
38514;DHT22;24282;48.400;10.808;2023-07-24T14:34:15;24.40;73.00
38514;DHT22;24282;48.400;10.808;2023-07-24T14:36:41;24.40;71.20
38514;DHT22;24282;48.400;10.808;2023-07-24T14:39:07;24.30;68.10
38514;DHT22;24282;48.400;10.808;2023-07-24T14:41:34;24.20;69.10
38514;DHT22;24282;48.400;10.808;2023-07-24T14:44:00;24.20;68.50
38514;DHT22;24282;48.400;10.808;2023-07-24T14:46:26;24.20;69.30
38514;DHT22;24282;48.400;10.808;2023-07-24T14:48:52;24.10;68.90
38514;DHT22;24282;48.400;10.808;2023-07-24T14:51:17;24.00;70.50
38514;DHT22;24282;48.400;10.808;2023-07-24T14:53:43;23.90;67.70
38514;DHT22;24282;48.400;10.808;2023-07-24T14:56:09;23.70;68.70
38514;DHT22;24282;48.400;10.808;2023-07-24T14:58:34;23.40;70.10
38514;DHT22;24282;48.400;10.808;2023-07-24T15:01:00;23.20;70.10
38514;DHT22;24282;48.400;10.808;2023-07-24T15:03:26;23.00;71.70
38514;DHT22;24282;48.400;10.808;2023-07-24T15:05:51;22.80;74.40
38514;DHT22;24282;48.400;10.808;2023-07-24T15:08:17;22.70;74.50
38514;DHT22;24282;48.400;10.808;2023-07-24T15:10:43;22.50;75.20
38514;DHT22;24282;48.400;10.808;2023-07-24T15:13:10;22.40;73.10
38514;DHT22;24282;48.400;10.808;2023-07-24T15:15:36;22.30;73.10
38514;DHT22;24282;48.400;10.808;2023-07-24T15:18:02;22.20;75.30